Time;durP1;ratioP1;P1;durP2;ratioP2;P2;SDS_P1;SDS_P2;PMS_P1;PMS_P2;Temp;Humidity;BMP_temperature;BMP_pressure;BME280_temperature;BME280_humidity;BME280_pressure;Samples;Min_cycle;Max_cycle;Signal;HPM_P1;HPM_P2
2022/03/26 00:02:23;;;;;;;96.23;65.17;;;7.90;99.90;;;;;;5034696;28;20049;-75
2022/03/26 00:04:48;;;;;;;95.70;64.13;;;7.90;99.90;;;;;;5034878;28;20050;-75
2022/03/26 00:07:14;;;;;;;93.37;63.70;;;7.80;99.90;;;;;;5035776;28;20045;-75
2022/03/26 00:09:40;;;;;;;98.70;64.53;;;7.80;99.90;;;;;;5036002;28;20046;-75
2022/03/26 00:12:06;;;;;;;95.47;63.53;;;7.70;99.90;;;;;;5035813;28;20053;-75
2022/03/26 00:14:32;;;;;;;89.82;61.95;;;7.70;99.90;;;;;;5035890;28;20128;-75
2022/03/26 00:17:00;;;;;;;94.78;63.95;;;7.70;99.90;;;;;;5035955;28;20095;-75
2022/03/26 00:19:26;;;;;;;96.88;66.43;;;7.60;99.90;;;;;;5035497;28;20053;-75
2022/03/26 00:21:52;;;;;;;100.00;63.22;;;7.60;99.90;;;;;;5036014;28;20454;-75
2022/03/26 00:24:18;;;;;;;103.93;64.93;;;7.60;99.90;;;;;;5035464;28;20128;-76
2022/03/26 00:26:43;;;;;;;97.87;66.30;;;7.60;99.90;;;;;;5035753;28;20128;-75
2022/03/26 00:29:09;;;;;;;95.50;65.03;;;7.60;99.90;;;;;;5035431;28;20048;-75
2022/03/26 00:31:37;;;;;;;97.57;64.63;;;7.50;99.90;;;;;;5035304;28;20476;-75
2022/03/26 00:34:04;;;;;;;105.57;67.75;;;7.50;99.90;;;;;;5034511;28;20045;-75
2022/03/26 00:36:31;;;;;;;104.38;68.00;;;7.50;99.90;;;;;;5033881;28;20054;-75
2022/03/26 00:38:57;;;;;;;103.47;66.90;;;7.50;99.90;;;;;;5034254;28;20504;-75
2022/03/26 00:41:23;;;;;;;105.95;66.55;;;7.40;99.90;;;;;;5035112;28;20056;-75
2022/03/26 00:43:50;;;;;;;103.82;65.25;;;7.50;99.90;;;;;;5035587;28;20064;-75
2022/03/26 00:46:16;;;;;;;103.03;66.75;;;7.40;99.90;;;;;;5035042;28;20128;-75
2022/03/26 00:48:42;;;;;;;105.10;67.57;;;7.40;99.90;;;;;;5035674;28;20502;-75
2022/03/26 00:51:08;;;;;;;109.57;71.05;;;7.40;99.90;;;;;;5034687;28;20049;-75
2022/03/26 00:53:34;;;;;;;110.07;71.85;;;7.30;99.90;;;;;;5034416;28;20041;-75
2022/03/26 00:56:00;;;;;;;109.53;72.27;;;7.40;99.90;;;;;;5035139;28;20049;-75
2022/03/26 00:58:26;;;;;;;106.20;69.17;;;7.30;99.90;;;;;;5033394;28;20049;-76
2022/03/26 01:00:52;;;;;;;111.53;72.00;;;7.30;99.90;;;;;;5035320;28;20049;-75
2022/03/26 01:03:18;;;;;;;112.22;72.63;;;7.30;99.90;;;;;;5033613;28;20057;-75
2022/03/26 01:05:44;;;;;;;109.30;71.45;;;7.30;99.90;;;;;;5033822;28;20117;-75
2022/03/26 01:08:10;;;;;;;109.82;71.07;;;7.30;99.90;;;;;;5034964;28;20057;-76
2022/03/26 01:10:37;;;;;;;110.05;71.80;;;7.30;99.90;;;;;;5034569;28;20057;-75
2022/03/26 01:13:03;;;;;;;115.47;71.97;;;7.30;99.90;;;;;;5033482;28;20517;-75
2022/03/26 01:15:29;;;;;;;110.55;70.43;;;7.20;99.90;;;;;;5033259;28;20049;-75
2022/03/26 01:17:55;;;;;;;109.70;71.73;;;7.20;99.90;;;;;;5034833;28;20531;-75
2022/03/26 01:20:21;;;;;;;111.70;73.03;;;7.10;99.90;;;;;;5033198;28;20049;-75
2022/03/26 01:22:47;;;;;;;113.75;72.32;;;7.10;99.90;;;;;;5034962;28;20045;-76
2022/03/26 01:25:13;;;;;;;108.27;71.97;;;7.10;99.90;;;;;;5033455;28;20239;-75
2022/03/26 01:27:39;;;;;;;112.47;73.22;;;7.10;99.90;;;;;;5034279;28;20068;-75
2022/03/26 01:30:06;;;;;;;109.25;69.78;;;7.10;99.90;;;;;;5033341;28;20087;-75
2022/03/26 01:32:32;;;;;;;113.53;74.03;;;7.00;99.90;;;;;;5034147;28;20053;-75
2022/03/26 01:34:58;;;;;;;111.95;72.05;;;6.90;99.90;;;;;;5034126;28;20041;-75
2022/03/26 01:37:24;;;;;;;107.97;71.45;;;6.90;99.90;;;;;;5034106;28;20379;-76
2022/03/26 01:39:54;;;;;;;112.67;71.87;;;6.80;99.90;;;;;;5034714;28;20060;-75
2022/03/26 01:42:20;;;;;;;116.60;74.30;;;6.80;99.90;;;;;;5034046;28;20042;-75
2022/03/26 01:44:46;;;;;;;112.78;73.93;;;6.80;99.90;;;;;;5032814;28;20481;-74
2022/03/26 01:47:12;;;;;;;116.18;73.60;;;6.80;99.90;;;;;;5034296;28;20050;-75
2022/03/26 01:49:38;;;;;;;122.90;78.07;;;6.80;99.90;;;;;;5033903;28;20103;-74
2022/03/26 01:52:07;;;;;;;121.03;75.85;;;6.80;99.90;;;;;;5034364;28;20037;-74
2022/03/26 01:54:33;;;;;;;119.55;75.63;;;6.80;99.90;;;;;;5035800;28;20117;-73
2022/03/26 01:56:59;;;;;;;127.22;79.78;;;6.80;99.90;;;;;;5033130;28;20085;-74
2022/03/26 01:59:27;;;;;;;126.00;78.45;;;6.80;99.90;;;;;;5033731;28;20054;-74
2022/03/26 02:01:53;;;;;;;124.00;78.53;;;6.80;99.90;;;;;;5032624;28;20050;-75
2022/03/26 02:04:19;;;;;;;122.97;76.32;;;6.80;99.90;;;;;;5031952;28;20080;-76
2022/03/26 02:06:45;;;;;;;120.07;76.90;;;6.80;99.90;;;;;;5033813;28;20091;-75
2022/03/26 02:09:12;;;;;;;130.37;80.20;;;6.80;99.90;;;;;;5033787;28;20049;-75
2022/03/26 02:11:44;;;;;;;122.95;77.28;;;6.70;99.90;;;;;;5033206;28;20076;-75
2022/03/26 02:14:11;;;;;;;120.38;79.18;;;6.70;99.90;;;;;;5032199;28;20434;-75
2022/03/26 02:16:42;;;;;;;118.85;74.55;;;6.60;99.90;;;;;;5032972;28;20540;-75
2022/03/26 02:19:09;;;;;;;122.57;78.25;;;6.60;99.90;;;;;;5033843;28;20179;-75
2022/03/26 02:21:37;;;;;;;126.57;78.25;;;6.60;99.90;;;;;;5033370;28;20045;-74
2022/03/26 02:24:05;;;;;;;120.88;76.95;;;6.60;99.90;;;;;;5033355;28;20478;-75
2022/03/26 02:26:31;;;;;;;122.53;75.25;;;6.50;99.90;;;;;;5033220;28;20045;-75
2022/03/26 02:29:03;;;;;;;119.35;76.53;;;6.60;99.90;;;;;;5033628;28;20063;-75
2022/03/26 02:31:29;;;;;;;130.80;78.00;;;6.50;99.90;;;;;;5033296;28;20069;-75
2022/03/26 02:33:55;;;;;;;125.03;78.13;;;6.50;99.90;;;;;;5032044;28;20049;-75
2022/03/26 02:36:20;;;;;;;118.70;74.87;;;6.40;99.90;;;;;;5031947;28;20047;-75
2022/03/26 02:38:46;;;;;;;116.83;76.10;;;6.40;99.90;;;;;;5033319;28;20047;-74
2022/03/26 02:41:12;;;;;;;117.97;75.40;;;6.40;99.90;;;;;;5033296;28;20045;-75
2022/03/26 02:43:37;;;;;;;114.10;73.80;;;6.40;99.90;;;;;;5032930;28;20140;-75
2022/03/26 02:46:03;;;;;;;121.50;75.37;;;6.50;99.90;;;;;;5033318;28;20057;-75
2022/03/26 02:48:30;;;;;;;118.93;75.35;;;6.40;99.90;;;;;;5032902;28;20045;-75
2022/03/26 02:50:56;;;;;;;118.82;74.25;;;6.40;99.90;;;;;;5031847;28;20060;-74
2022/03/26 02:53:22;;;;;;;116.28;74.63;;;6.40;99.90;;;;;;5033399;28;20049;-75
2022/03/26 02:55:48;;;;;;;124.23;74.87;;;6.40;99.90;;;;;;5032744;28;20045;-75
2022/03/26 02:58:14;;;;;;;118.37;74.53;;;6.30;99.90;;;;;;5031878;28;20091;-75
2022/03/26 03:00:39;;;;;;;113.20;71.67;;;6.20;99.90;;;;;;5032594;28;20056;-75
2022/03/26 03:03:06;;;;;;;119.93;75.70;;;6.10;99.90;;;;;;5032663;28;20489;-75
2022/03/26 03:05:33;;;;;;;116.90;73.93;;;6.20;99.90;;;;;;5032481;28;20512;-75
2022/03/26 03:08:00;;;;;;;124.75;76.50;;;6.20;99.90;;;;;;5032725;28;20048;-75
2022/03/26 03:10:27;;;;;;;125.00;80.15;;;6.20;99.90;;;;;;5032220;28;20478;-76
2022/03/26 03:12:53;;;;;;;131.80;79.22;;;6.20;99.90;;;;;;5032868;28;20061;-75
2022/03/26 03:15:20;;;;;;;122.22;76.20;;;6.20;99.90;;;;;;5032635;28;20462;-75
2022/03/26 03:17:48;;;;;;;125.85;77.82;;;6.20;99.90;;;;;;5032483;28;20115;-75
2022/03/26 03:20:15;;;;;;;125.20;78.35;;;6.20;99.90;;;;;;5032888;28;20420;-75
2022/03/26 03:22:42;;;;;;;131.30;79.10;;;6.20;99.90;;;;;;5032406;28;20054;-75
2022/03/26 03:25:09;;;;;;;120.38;76.57;;;6.20;99.90;;;;;;5031538;28;20464;-75
2022/03/26 03:27:36;;;;;;;120.72;75.10;;;6.10;99.90;;;;;;5032204;28;20045;-75
2022/03/26 03:30:04;;;;;;;124.15;76.45;;;6.20;99.90;;;;;;5032665;28;20053;-75
2022/03/26 03:32:30;;;;;;;126.30;77.28;;;6.10;99.90;;;;;;5032404;28;20046;-76
2022/03/26 03:34:56;;;;;;;114.33;73.33;;;6.20;99.90;;;;;;5032569;28;20045;-75
2022/03/26 03:37:23;;;;;;;124.32;75.70;;;6.20;99.90;;;;;;5031452;28;20279;-75
2022/03/26 03:39:49;;;;;;;121.13;74.85;;;6.30;99.90;;;;;;5032323;28;20045;-75
2022/03/26 03:42:15;;;;;;;129.73;76.10;;;6.20;99.90;;;;;;5032709;28;20052;-74
2022/03/26 03:44:41;;;;;;;121.07;74.10;;;6.20;99.90;;;;;;5031157;28;20046;-75
2022/03/26 03:47:07;;;;;;;118.80;73.40;;;6.20;99.90;;;;;;5031384;28;20366;-75
2022/03/26 03:49:34;;;;;;;131.63;76.75;;;5.90;99.90;;;;;;5030868;28;20141;-75
2022/03/26 03:52:00;;;;;;;132.07;80.30;;;6.00;99.90;;;;;;5032430;28;20085;-75
2022/03/26 03:54:26;;;;;;;122.43;78.03;;;6.00;99.90;;;;;;5035035;28;20042;-75
2022/03/26 03:56:51;;;;;;;127.83;80.07;;;6.00;99.90;;;;;;5032194;28;20557;-75
2022/03/26 03:59:18;;;;;;;128.53;79.37;;;6.00;99.90;;;;;;5032482;28;20136;-75
2022/03/26 04:01:43;;;;;;;124.65;78.72;;;6.00;99.90;;;;;;5030998;28;20373;-75
2022/03/26 04:04:09;;;;;;;122.33;76.47;;;6.00;99.90;;;;;;5032465;28;20080;-75
2022/03/26 04:06:35;;;;;;;127.03;77.63;;;6.00;99.90;;;;;;5032225;28;20049;-75
2022/03/26 04:09:01;;;;;;;128.30;80.57;;;6.00;99.90;;;;;;5032044;28;20380;-75
2022/03/26 04:11:27;;;;;;;124.18;78.30;;;6.00;99.90;;;;;;5032168;28;20095;-75
2022/03/26 04:13:53;;;;;;;124.07;79.47;;;5.90;99.90;;;;;;5031781;28;20053;-75
2022/03/26 04:16:23;;;;;;;129.80;78.85;;;6.00;99.90;;;;;;5032253;28;20050;-75
2022/03/26 04:18:49;;;;;;;121.80;75.40;;;5.90;99.90;;;;;;5030611;28;20053;-75
2022/03/26 04:21:15;;;;;;;124.65;75.13;;;5.80;99.90;;;;;;5032310;28;20045;-75
2022/03/26 04:23:42;;;;;;;120.07;75.65;;;5.90;99.90;;;;;;5014159;28;20045;-75
2022/03/26 04:26:08;;;;;;;118.25;74.78;;;5.90;99.90;;;;;;5032219;28;20512;-74
2022/03/26 04:28:34;;;;;;;132.57;76.97;;;5.90;99.90;;;;;;5035667;28;20089;-75
2022/03/26 04:31:00;;;;;;;124.88;77.10;;;5.80;99.90;;;;;;5035762;28;20046;-75
2022/03/26 04:33:26;;;;;;;134.65;79.20;;;5.70;99.90;;;;;;5018092;28;20103;-74
2022/03/26 04:35:52;;;;;;;130.68;78.90;;;5.60;99.90;;;;;;5035321;28;20046;-75
2022/03/26 04:38:19;;;;;;;123.93;75.67;;;5.50;99.90;;;;;;5035421;28;20045;-74
2022/03/26 04:40:46;;;;;;;117.07;73.68;;;5.50;99.90;;;;;;5035163;28;20081;-75
2022/03/26 04:43:12;;;;;;;119.95;73.85;;;5.50;99.90;;;;;;5034514;28;20119;-74
2022/03/26 04:45:38;;;;;;;122.03;75.00;;;5.60;99.90;;;;;;5035140;28;20128;-75
2022/03/26 04:48:04;;;;;;;118.38;73.38;;;5.50;99.90;;;;;;5035424;28;20045;-75
2022/03/26 04:50:30;;;;;;;118.65;73.82;;;5.50;99.90;;;;;;5034928;28;20041;-74
2022/03/26 04:52:56;;;;;;;125.27;77.57;;;5.50;99.90;;;;;;5033956;28;20053;-75
2022/03/26 04:55:22;;;;;;;121.88;74.22;;;5.50;99.90;;;;;;5035338;28;20054;-74
2022/03/26 04:57:48;;;;;;;128.33;77.37;;;5.50;99.90;;;;;;5034890;28;20425;-74
2022/03/26 05:00:16;;;;;;;121.60;74.38;;;5.50;99.90;;;;;;5035138;28;20087;-75
2022/03/26 05:02:42;;;;;;;123.60;77.15;;;5.60;99.90;;;;;;5033696;28;20131;-75
2022/03/26 05:05:10;;;;;;;127.97;77.15;;;5.50;99.90;;;;;;5034987;28;20489;-75
2022/03/26 05:07:46;;;;;;;121.95;75.25;;;5.60;99.90;;;;;;5035111;28;20053;-74
2022/03/26 05:10:13;;;;;;;116.93;71.15;;;5.50;99.90;;;;;;5035052;28;20042;-75
2022/03/26 05:12:38;;;;;;;127.93;75.82;;;5.50;99.90;;;;;;5034991;28;20405;-74
2022/03/26 05:15:04;;;;;;;121.97;76.40;;;5.40;99.90;;;;;;5034521;28;20041;-74
2022/03/26 05:17:30;;;;;;;130.02;76.78;;;5.40;99.90;;;;;;5035049;28;20045;-74
2022/03/26 05:19:56;;;;;;;126.77;75.70;;;5.40;99.90;;;;;;5033278;28;20049;-74
2022/03/26 05:22:22;;;;;;;122.10;73.20;;;5.40;99.90;;;;;;5034877;28;20053;-74
2022/03/26 05:24:47;;;;;;;123.87;74.53;;;5.40;99.90;;;;;;5034547;28;20493;-74
2022/03/26 05:27:13;;;;;;;120.83;74.37;;;5.40;99.90;;;;;;5017277;28;20041;-75
2022/03/26 05:29:39;;;;;;;131.50;77.57;;;5.40;99.90;;;;;;5034655;28;20482;-74
2022/03/26 05:32:06;;;;;;;126.30;76.00;;;5.40;99.90;;;;;;5034329;28;20548;-75
2022/03/26 05:34:32;;;;;;;120.32;72.38;;;5.40;99.90;;;;;;5034476;28;20057;-75
2022/03/26 05:36:58;;;;;;;120.40;73.18;;;5.40;99.90;;;;;;5033094;28;20107;-74
2022/03/26 05:39:24;;;;;;;119.80;71.27;;;5.40;99.90;;;;;;5034347;28;20436;-75
2022/03/26 05:41:50;;;;;;;114.27;70.80;;;5.40;99.90;;;;;;5033651;28;20049;-75
2022/03/26 05:44:16;;;;;;;119.78;72.65;;;5.40;99.90;;;;;;5033318;28;20129;-74
2022/03/26 05:46:42;;;;;;;117.17;72.00;;;5.40;99.90;;;;;;5033943;28;20128;-75
2022/03/26 05:49:09;;;;;;;116.47;70.13;;;5.40;99.90;;;;;;5034337;28;20053;-75
2022/03/26 05:51:34;;;;;;;119.18;74.05;;;5.50;99.90;;;;;;5034381;28;20183;-75
2022/03/26 05:54:00;;;;;;;115.33;69.90;;;5.50;99.90;;;;;;5033862;28;20120;-75
2022/03/26 05:56:26;;;;;;;120.53;68.87;;;5.50;99.90;;;;;;5034575;28;20442;-74
2022/03/26 05:58:52;;;;;;;117.13;71.23;;;5.50;99.90;;;;;;5033844;28;20050;-75
2022/03/26 06:01:18;;;;;;;116.00;67.97;;;5.60;99.90;;;;;;5034240;28;20056;-75
2022/03/26 06:03:44;;;;;;;116.70;70.37;;;5.60;99.90;;;;;;5032746;28;20041;-74
2022/03/26 06:06:09;;;;;;;111.85;69.70;;;5.50;99.90;;;;;;5032698;28;20052;-75
2022/03/26 06:08:35;;;;;;;122.43;72.70;;;5.60;99.90;;;;;;5033044;28;20049;-75
2022/03/26 06:11:01;;;;;;;127.83;76.73;;;5.70;99.90;;;;;;5033531;28;20048;-74
2022/03/26 06:13:26;;;;;;;118.07;74.07;;;5.80;99.90;;;;;;5034098;28;20088;-74
2022/03/26 06:15:52;;;;;;;121.60;73.40;;;5.80;99.90;;;;;;5032075;28;20128;-75
2022/03/26 06:18:18;;;;;;;117.77;73.47;;;5.80;99.90;;;;;;5033776;28;20132;-74
2022/03/26 06:20:43;;;;;;;115.27;70.07;;;5.90;99.90;;;;;;5033599;28;20041;-74
2022/03/26 06:23:10;;;;;;;119.27;73.60;;;6.00;99.90;;;;;;5033302;28;20501;-75
2022/03/26 06:25:36;;;;;;;120.35;72.25;;;6.10;99.90;;;;;;5033586;28;20068;-74
2022/03/26 06:28:02;;;;;;;112.53;71.60;;;6.20;99.90;;;;;;5033203;28;20501;-75
2022/03/26 06:30:27;;;;;;;117.35;73.40;;;6.30;99.90;;;;;;5033510;28;20052;-75
2022/03/26 06:32:53;;;;;;;125.23;72.80;;;6.40;99.90;;;;;;5033061;28;20393;-75
2022/03/26 06:35:19;;;;;;;114.70;73.57;;;6.40;99.90;;;;;;5032972;28;20052;-75
2022/03/26 06:37:45;;;;;;;112.10;70.03;;;6.40;99.90;;;;;;5033399;28;20061;-75
2022/03/26 06:40:11;;;;;;;110.00;70.00;;;6.40;99.90;;;;;;5031641;28;20136;-75
2022/03/26 06:42:37;;;;;;;109.28;69.32;;;6.50;99.90;;;;;;5033332;28;20049;-75
2022/03/26 06:45:03;;;;;;;109.73;68.83;;;6.50;99.90;;;;;;5033029;28;20041;-75
2022/03/26 06:47:31;;;;;;;111.30;69.70;;;;;;;;;;5032476;28;20060;-74
2022/03/26 06:49:57;;;;;;;108.00;69.90;;;6.60;99.90;;;;;;5031532;28;20057;-75
2022/03/26 06:52:23;;;;;;;108.88;69.22;;;6.70;99.90;;;;;;5033089;28;20045;-75
2022/03/26 06:54:50;;;;;;;104.13;67.40;;;7.30;99.90;;;;;;5032504;28;20516;-76
2022/03/26 06:57:16;;;;;;;107.78;68.95;;;7.30;99.90;;;;;;5033181;28;20053;-75
2022/03/26 06:59:42;;;;;;;95.23;64.93;;;8.40;99.90;;;;;;5032988;28;20103;-75
2022/03/26 07:02:07;;;;;;;94.43;62.87;;;9.30;99.90;;;;;;5032700;28;20544;-75
2022/03/26 07:04:33;;;;;;;92.33;64.20;;;10.40;99.90;;;;;;5032997;28;20318;-75
2022/03/26 07:06:59;;;;;;;84.57;60.47;;;;;;;;;;5032723;28;20045;-76
2022/03/26 07:09:25;;;;;;;81.83;59.40;;;12.50;99.90;;;;;;5032891;28;20082;-76
2022/03/26 07:11:51;;;;;;;85.37;59.47;;;13.30;99.90;;;;;;5032658;28;20292;-76
2022/03/26 07:14:17;;;;;;;82.40;60.43;;;14.00;98.10;;;;;;5032798;28;20440;-76
2022/03/26 07:16:44;;;;;;;82.20;59.17;;;15.20;74.10;;;;;;5032918;28;20291;-75
2022/03/26 07:19:10;;;;;;;80.20;58.50;;;15.50;92.40;;;;;;5032481;28;20368;-76
2022/03/26 07:21:37;;;;;;;84.97;61.87;;;16.30;86.40;;;;;;5033009;28;20285;-76
2022/03/26 07:24:04;;;;;;;85.47;65.10;;;17.30;74.40;;;;;;5032411;28;20362;-76
2022/03/26 07:26:30;;;;;;;75.03;57.93;;;17.40;76.10;;;;;;5033069;28;20363;-75
2022/03/26 07:28:56;;;;;;;76.90;61.50;;;17.50;72.30;;;;;;5032436;28;20731;-77
2022/03/26 07:31:22;;;;;;;76.30;60.33;;;17.80;69.30;;;;;;5031485;28;20053;-74
2022/03/26 07:33:48;;;;;;;77.00;57.73;;;18.20;67.40;;;;;;5032678;28;20049;-75
2022/03/26 07:36:13;;;;;;;78.10;59.07;;;18.60;65.30;;;;;;5032414;28;20315;-75
2022/03/26 07:38:39;;;;;;;73.67;58.50;;;19.00;63.10;;;;;;5031645;28;20045;-76
2022/03/26 07:41:05;;;;;;;71.57;59.70;;;19.40;61.70;;;;;;5032366;28;20048;-77
2022/03/26 07:43:31;;;;;;;71.43;57.40;;;19.40;59.90;;;;;;5032679;28;20045;-76
2022/03/26 07:45:56;;;;;;;75.03;58.00;;;19.30;59.40;;;;;;5031232;28;20125;-77
2022/03/26 07:48:23;;;;;;;68.07;55.80;;;18.70;82.40;;;;;;5032741;28;20045;-76
2022/03/26 07:50:49;;;;;;;73.40;58.00;;;17.80;58.90;;;;;;5032619;28;20048;-76
2022/03/26 07:53:15;;;;;;;68.03;55.07;;;17.10;60.30;;;;;;5032297;28;20409;-76
2022/03/26 07:55:41;;;;;;;74.27;58.17;;;;;;;;;;5033034;28;20056;-76
2022/03/26 07:58:07;;;;;;;74.33;57.17;;;16.00;62.50;;;;;;5034150;28;20105;-76
2022/03/26 08:00:33;;;;;;;69.97;54.10;;;;;;;;;;5032627;28;20137;-76
2022/03/26 08:02:59;;;;;;;74.53;57.93;;;15.20;96.00;;;;;;5035097;28;20042;-77
2022/03/26 08:05:25;;;;;;;76.33;56.27;;;15.10;66.30;;;;;;5036299;28;20103;-77
2022/03/26 08:07:51;;;;;;;77.13;57.90;;;15.00;67.90;;;;;;5036162;28;20504;-72
2022/03/26 08:10:16;;;;;;;71.87;56.17;;;14.80;69.20;;;;;;5035853;28;20308;-75
2022/03/26 08:12:42;;;;;;;81.60;58.43;;;;;;;;;;5035445;28;20096;-77
2022/03/26 08:15:09;;;;;;;77.03;55.57;;;14.70;70.40;;;;;;5034632;28;20120;-76
2022/03/26 08:17:34;;;;;;;74.83;56.77;;;14.50;71.90;;;;;;5036216;28;20342;-76
2022/03/26 08:20:00;;;;;;;75.03;54.80;;;14.50;73.30;;;;;;5035683;28;20284;-76
2022/03/26 08:22:26;;;;;;;76.30;55.97;;;14.50;74.40;;;;;;5036013;28;20052;-76
2022/03/26 08:24:52;;;;;;;81.53;54.97;;;14.40;74.20;;;;;;5034673;28;20049;-76
2022/03/26 08:27:17;;;;;;;69.33;52.43;;;14.40;74.80;;;;;;5035438;28;20104;-76
2022/03/26 08:29:43;;;;;;;76.10;52.97;;;14.40;76.10;;;;;;5035785;28;20106;-75
2022/03/26 08:32:09;;;;;;;72.07;52.00;;;14.20;75.10;;;;;;5034487;28;20049;-76
2022/03/26 08:34:34;;;;;;;71.93;51.00;;;14.10;75.80;;;;;;5017979;28;20045;-76
2022/03/26 08:37:00;;;;;;;66.23;49.63;;;14.00;76.10;;;;;;5034589;28;20060;-80
2022/03/26 08:39:26;;;;;;;66.97;45.83;;;14.00;76.50;;;;;;5035565;28;20049;-76
2022/03/26 08:41:51;;;;;;;66.17;47.87;;;13.90;76.60;;;;;;5035542;28;20102;-75
2022/03/26 08:44:17;;;;;;;61.97;46.90;;;13.90;76.80;;;;;;5035244;28;20421;-75
2022/03/26 08:46:43;;;;;;;68.57;48.30;;;13.80;77.00;;;;;;5035567;28;20146;-75
2022/03/26 08:49:09;;;;;;;71.20;50.67;;;13.70;77.80;;;;;;5035198;28;20049;-75
2022/03/26 08:51:34;;;;;;;65.53;47.60;;;13.70;78.60;;;;;;5035433;28;20045;-75
2022/03/26 08:54:00;;;;;;;67.80;49.40;;;13.60;79.80;;;;;;5034090;28;20493;-75
2022/03/26 08:56:26;;;;;;;64.73;46.47;;;13.60;80.10;;;;;;5034968;28;20096;-75
2022/03/26 08:58:52;;;;;;;65.13;45.93;;;13.60;81.00;;;;;;5035246;28;20053;-75
2022/03/26 09:01:18;;;;;;;69.83;47.47;;;13.50;81.70;;;;;;5034933;28;20049;-75
2022/03/26 09:03:44;;;;;;;65.97;45.70;;;13.50;82.00;;;;;;5035206;28;20636;-75
2022/03/26 09:06:10;;;;;;;61.80;42.57;;;13.50;82.80;;;;;;5034614;28;20050;-75
2022/03/26 09:08:37;;;;;;;54.63;38.30;;;13.50;82.80;;;;;;5035200;28;20116;-75
2022/03/26 09:11:04;;;;;;;57.17;39.07;;;13.40;83.10;;;;;;5033986;28;20320;-75
2022/03/26 09:13:31;;;;;;;53.30;36.10;;;13.50;83.90;;;;;;5032883;28;20366;-75
2022/03/26 09:15:58;;;;;;;49.23;35.57;;;13.50;84.60;;;;;;5035129;28;20411;-74
2022/03/26 09:18:25;;;;;;;54.73;39.40;;;13.50;85.40;;;;;;5034495;28;20276;-75
2022/03/26 09:20:51;;;;;;;55.70;39.80;;;13.50;85.60;;;;;;5033828;28;20830;-73
2022/03/26 09:23:17;;;;;;;49.10;35.07;;;13.50;86.40;;;;;;5034139;28;20775;-74
2022/03/26 09:25:42;;;;;;;52.77;38.30;;;13.50;87.30;;;;;;5033472;28;20322;-74
2022/03/26 09:28:09;;;;;;;44.17;33.00;;;13.60;88.80;;;;;;5034258;28;20053;-74
2022/03/26 09:30:36;;;;;;;46.43;34.20;;;13.70;90.20;;;;;;5034549;28;20053;-73
2022/03/26 09:33:03;;;;;;;50.23;34.10;;;13.80;89.20;;;;;;5033466;28;20276;-72
2022/03/26 09:35:29;;;;;;;47.33;35.20;;;13.70;90.30;;;;;;5016398;28;20304;-73
2022/03/26 09:37:55;;;;;;;42.00;31.90;;;13.80;90.60;;;;;;5034482;28;20280;-72
2022/03/26 09:40:22;;;;;;;43.30;30.23;;;13.80;91.00;;;;;;5032792;28;20299;-73
2022/03/26 09:42:49;;;;;;;42.20;30.83;;;13.80;90.90;;;;;;5034417;28;20283;-72
2022/03/26 09:45:15;;;;;;;41.33;32.17;;;13.80;91.40;;;;;;5034027;28;20276;-72
2022/03/26 09:47:41;;;;;;;40.07;28.60;;;13.80;91.50;;;;;;5034285;28;20342;-73
2022/03/26 09:50:09;;;;;;;40.33;28.70;;;13.80;91.90;;;;;;5034390;28;20049;-73
2022/03/26 09:52:35;;;;;;;40.77;29.83;;;13.90;92.20;;;;;;5034233;28;20052;-73
2022/03/26 09:55:01;;;;;;;33.63;25.83;;;13.90;92.30;;;;;;5034421;28;20307;-73
2022/03/26 09:57:27;;;;;;;33.97;25.77;;;13.90;92.20;;;;;;5034304;28;20772;-72
2022/03/26 09:59:53;;;;;;;33.37;25.67;;;13.90;92.30;;;;;;5034229;28;20276;-72
2022/03/26 10:02:18;;;;;;;34.60;25.73;;;13.90;92.30;;;;;;5033855;28;20114;-74
2022/03/26 10:04:44;;;;;;;31.20;23.73;;;14.00;92.40;;;;;;5033285;28;20041;-74
2022/03/26 10:07:11;;;;;;;30.60;22.67;;;14.00;92.20;;;;;;5032734;28;20128;-79
2022/03/26 10:09:41;;;;;;;28.90;20.23;;;13.90;92.20;;;;;;5033600;28;20045;-73
2022/03/26 10:12:10;;;;;;;25.20;18.03;;;14.00;92.30;;;;;;5033113;28;20288;-74
2022/03/26 10:14:47;;;;;;;26.37;18.60;;;14.00;91.80;;;;;;5032338;28;20693;-75
2022/03/26 10:17:16;;;;;;;25.33;19.13;;;14.10;91.10;;;;;;5033389;28;20338;-75
2022/03/26 10:19:51;;;;;;;25.87;17.53;;;14.00;90.70;;;;;;5032985;28;20291;-75
2022/03/26 10:22:32;;;;;;;23.57;16.80;;;14.10;88.30;;;;;;5033196;28;20310;-75
2022/03/26 10:25:03;;;;;;;25.73;17.23;;;14.30;88.00;;;;;;5033021;28;20280;-75
2022/03/26 10:27:36;;;;;;;25.47;18.30;;;14.40;85.00;;;;;;5033348;28;20402;-75
2022/03/26 10:30:04;;;;;;;23.17;16.17;;;14.40;85.60;;;;;;5032327;28;20311;-75
2022/03/26 10:32:41;;;;;;;19.83;15.70;;;14.50;84.20;;;;;;5032262;28;20295;-75
2022/03/26 10:35:24;;;;;;;21.37;15.17;;;14.50;83.00;;;;;;5033430;28;20862;-75
2022/03/26 10:37:56;;;;;;;22.10;14.77;;;14.50;81.40;;;;;;5033473;28;20284;-75
2022/03/26 10:40:35;;;;;;;22.17;15.63;;;14.50;81.10;;;;;;5033240;28;20349;-75
2022/03/26 10:43:07;;;;;;;19.43;13.87;;;14.50;81.30;;;;;;5033019;28;20284;-75
2022/03/26 10:45:47;;;;;;;15.37;12.47;;;14.50;80.20;;;;;;5032992;28;20380;-75
2022/03/26 10:48:13;;;;;;;18.17;11.60;;;14.60;78.00;;;;;;5033377;28;20280;-75
2022/03/26 10:50:40;;;;;;;16.70;11.93;;;14.70;76.40;;;;;;5031441;28;20286;-75
2022/03/26 10:53:11;;;;;;;18.17;12.20;;;14.70;76.00;;;;;;5032035;28;20115;-78
2022/03/26 10:55:43;;;;;;;17.13;10.77;;;14.70;76.90;;;;;;5032568;28;20319;-78
2022/03/26 10:58:09;;;;;;;14.63;10.27;;;14.70;77.00;;;;;;5032857;28;20284;-78
2022/03/26 11:00:35;;;;;;;15.07;8.73;;;14.70;76.00;;;;;;5032700;28;20353;-78
2022/03/26 11:03:01;;;;;;;15.93;9.37;;;14.70;76.40;;;;;;5031872;28;20171;-78
2022/03/26 11:05:30;;;;;;;17.20;10.00;;;14.70;74.60;;;;;;5032660;28;20045;-73
2022/03/26 11:07:57;;;;;;;12.83;8.60;;;14.70;75.10;;;;;;5032695;28;20507;-78
2022/03/26 11:10:25;;;;;;;13.90;8.83;;;14.80;74.60;;;;;;5032712;28;20287;-78
2022/03/26 11:12:52;;;;;;;13.97;8.73;;;14.90;74.40;;;;;;5032857;28;20295;-78
2022/03/26 11:15:34;;;;;;;14.17;9.47;;;14.90;74.70;;;;;;5031260;28;20326;-79
2022/03/26 11:18:11;;;;;;;12.60;7.77;;;14.90;73.60;;;;;;5032906;28;20280;-78
2022/03/26 11:20:56;;;;;;;14.00;7.50;;;14.90;73.80;;;;;;5032529;28;20644;-78
2022/03/26 11:23:51;;;;;;;11.97;7.20;;;14.90;73.20;;;;;;5032263;28;20663;-78
2022/03/26 11:26:23;;;;;;;11.93;8.02;;;14.90;73.30;;;;;;5031593;28;20056;-77
2022/03/26 11:29:21;;;;;;;11.73;7.80;;;14.80;73.80;;;;;;5031759;28;20053;-78
2022/03/26 11:31:53;;;;;;;13.47;8.33;;;14.80;73.60;;;;;;5033027;28;20621;-78
2022/03/26 11:34:20;;;;;;;11.07;7.20;;;14.90;73.70;;;;;;5032870;28;20744;-79
2022/03/26 11:36:50;;;;;;;12.17;7.30;;;14.90;73.40;;;;;;5035665;28;20280;-78
2022/03/26 11:39:18;;;;;;;10.97;7.10;;;14.90;73.00;;;;;;5036867;28;20280;-78
2022/03/26 11:41:44;;;;;;;11.30;6.43;;;14.80;72.30;;;;;;5036627;28;20279;-78
2022/03/26 11:44:11;;;;;;;10.70;7.03;;;14.90;72.30;;;;;;5036988;28;20277;-78
2022/03/26 11:52:26;;;;;;;10.40;6.60;;;15.20;71.30;;;;;;5036134;28;20773;-79
2022/03/26 11:55:12;;;;;;;10.37;5.93;;;15.20;71.00;;;;;;5035539;28;20041;-76
2022/03/26 11:57:37;;;;;;;;;;;15.20;69.80;;;;;;5035397;28;20292;-76
2022/03/26 12:00:14;;;;;;;10.40;5.93;;;15.30;70.50;;;;;;5037510;28;19927;-76
2022/03/26 12:02:49;;;;;;;12.73;6.43;;;15.20;70.60;;;;;;5036162;28;20047;-77
2022/03/26 12:08:19;;;;;;;9.97;5.60;;;15.20;70.20;;;;;;5035456;28;20052;-73
2022/03/26 12:10:45;;;;;;;10.43;5.80;;;15.20;69.50;;;;;;5035903;28;20268;-73
2022/03/26 12:13:21;;;;;;;8.57;5.47;;;15.10;70.10;;;;;;5035732;28;20324;-73
2022/03/26 12:15:59;;;;;;;;;;;15.10;69.60;;;;;;5036205;28;20300;-73
2022/03/26 12:18:38;;;;;;;9.40;5.10;;;15.10;70.70;;;;;;5035737;28;20010;-73
2022/03/26 12:21:09;;;;;;;9.10;4.73;;;15.10;70.60;;;;;;5035963;28;20280;-72
2022/03/26 12:23:36;;;;;;;7.80;5.00;;;15.10;71.70;;;;;;5035548;28;20287;-74
2022/03/26 12:26:07;;;;;;;8.53;4.90;;;15.10;72.00;;;;;;5035796;28;20272;-74
2022/03/26 12:28:35;;;;;;;9.80;4.73;;;15.10;72.30;;;;;;5035593;28;20371;-74
2022/03/26 12:31:04;;;;;;;8.97;4.90;;;15.10;72.90;;;;;;5034855;28;20288;-72
2022/03/26 12:33:38;;;;;;;11.70;5.30;;;15.10;72.60;;;;;;5034447;28;20292;-73
2022/03/26 12:36:05;;;;;;;9.20;5.10;;;15.10;72.20;;;;;;5035679;28;20343;-73
2022/03/26 12:38:31;;;;;;;8.67;5.13;;;15.20;72.30;;;;;;5035350;28;20291;-73
2022/03/26 12:40:59;;;;;;;7.97;4.90;;;15.20;72.50;;;;;;5035615;28;20280;-72